Laporte, CO

3:35 PM MDT on October 01, 2014 (GMT -0600)
Fort Collins-Loveland Municipal | Change Station
CLOSE
Current Station
Airport
Location: Fort Collins,
Elevation: 1529 m
Nearby Weather Stations
Active Advisory: Severe Thunderstorm Warning

Elev 1529 m 40.45 °N, 105.01 °W | Updated 20 minutes ago

Rain
Rain
8 °C
Feels Like 3 °C
N
48
Wind Variable Wind from North
Gusts 54 km/h

Today
High -- | Low -- °C
--% Chance of Precip.
Yesterday
High -- | Low -- °C
Precip. -- mm
6:57 AM 6:42 PM
Waxing Crescent, 51% visible
Pressure 1013 hPa
Visibility 16.1 kilometers
Clouds Few 731 m
Scattered Clouds 1097 m
Overcast 1676 m
Windchill 3 °C
Dew Point 5 °C
Humidity 81%
Rainfall 8.9 mm
Snow Depth 0 in , 2 in , 5 in
UV 1 out of 12
Pollen 3.40 out of 12
Ozone Good
Flu Activity Not available.
METAR KFNL 012115Z AUTO 36026G29KT 10SM VCTS FEW024 SCT036 OVC055 08/05 A2992 RMK AO1 LTG DSNT NE

More Conditions Fewer Conditions

Pressure 1013 hPa
Visibility 16.1 kilometers
Clouds Few 731 m
Scattered Clouds 1097 m
Overcast 1676 m
Windchill 3 °C
Dew Point 5 °C
Humidity 81%
Rainfall 8.9 mm
Snow Depth 0 in , 2 in , 5 in
UV 1 out of 12
Pollen 3.40 out of 12
Ozone Good
Flu Activity Not available.
METAR KFNL 012115Z AUTO 36026G29KT 10SM VCTS FEW024 SCT036 OVC055 08/05 A2992 RMK AO1 LTG DSNT NE

More Conditions Fewer Conditions

Nowcast | as of 2:22 PM MDT on October 1, 2014

Showers and isolated thunderstorms will move off the foothills over the Front Range cities through 4 PM. The strongest storms will be in Weld County and will produce brief heavy rain and wind gusts to 40 mph.

×

10-Day Weather Forecast

Almanac

Astronomy

Oct. 01, 2014 Rise Set
Actual Time 6:57 AM MDT 6:42 PM MDT
Civil Twilight 6:29 AM MDT 7:09 PM MDT
Nautical Twilight 5:58 AM MDT 7:41 PM MDT
Astronomical Twilight 5:26 AM MDT 8:13 PM MDT
Moon 2:01 PM MDT No Moon Set
Length of Visible Light 12h 39m
Length of Day
11h 45m
Tomorrow will be 2m 40s shorter.
Waxing Crescent, 51% of the Moon is Illuminated
Today
Waxing Crescent
Oct 8
Full
Oct 15
Last Quarter
Oct 23
New
Oct 30
First Quarter

Today's Extremes

State Highs State Lows

Community

WunderPhotos

Upload Photos

1,758,058 photos uploaded!

WunderBlogs® & News

By Dr. Jeff Masters
Director of Meteorology, Weather Underground
By Kari Strenfel
Meteorologist, Weather Underground
By Christopher C. Burt
Weather Historian, Weather Underground
October 1, 2014
October 1, 2014
October 1, 2014

Nearby

Air Quality

  Air Quality AQ Index Pollutant
Yesterday Good
OZONE
Current Good
OZONE
Wednesday Good
PM2.5
Wednesday Good
OZONE
Thursday Good
PM2.5
Thursday Good
OZONE

Snow Depth

Station Depth Elevation
Spud Mountain 0 in 10660 ft
Rabbit Ears 2 in 9400 ft
Tower 5 in 10500 ft
Roach 2 in 9700 ft
Wolf Creek Summit 0 in 11000 ft

Earthquake Activity

City Distance Mag. Time & Date
No recent earthquake activity has been reported nearby.
Minimum magnitude displayed is 2.5.

Coastal Water Temperatures

Place Temperature
No Stations Reporting

Nearby Weather Stations